Haugen, Wisconsin
Current Conditions -  °F | °C
As of 8:15 AM on Monday 26 Jan 2015 (Local Time) from KUBE Reporting Station
Unknown Precip Unknown Precip  
Wind Chill: 13°   Ceiling: 600
Heat Index: 21°   Visibility: 2mi
Dew Point: 21°   Wind: 7mph
Humidity: 100%   Direction: 150°SSE
Pressure: 29.69"   Gusts: NA
Location:  45.61°N, 91.77°W
Report Text: KUBE 261415Z AUTO 15006KT 2SM UP OVC006 M06/M06 A2969 RMK AO2
Loading
Personal Weather Stations






























Interactive Weather Map New forecast layout! Learn more

10-Day Weather Forecast

Advertisements
Track Severe Weather on mobile